createdAt,value
2019-02-04T00:01:53.369Z,100779.11
2019-02-04T00:04:23.901Z,100784.49
2019-02-04T00:06:54.371Z,100778.23
2019-02-04T00:09:24.809Z,100783.66
2019-02-04T00:11:56.322Z,100785.89
2019-02-04T00:14:26.784Z,100785.37
2019-02-04T00:16:57.224Z,100786.13
2019-02-04T00:19:27.695Z,100789.47
2019-02-04T00:21:58.154Z,100789.75
2019-02-04T00:24:29.348Z,100787.52
2019-02-04T00:26:59.783Z,100784.48
2019-02-04T00:29:30.550Z,100786.47
2019-02-04T00:32:01.031Z,100785.31
2019-02-04T00:34:31.784Z,100780.97
2019-02-04T00:37:02.258Z,100776.53
2019-02-04T00:39:33.063Z,100782.51
2019-02-04T00:42:03.893Z,100783.98
2019-02-04T00:44:34.359Z,100789.16
2019-02-04T00:47:05.093Z,100788.56
2019-02-04T00:49:35.897Z,100792.66
2019-02-04T00:52:06.437Z,100793.11
2019-02-04T00:54:36.875Z,100794.97
2019-02-04T00:57:07.701Z,100791.37
2019-02-04T00:59:38.148Z,100791.52
2019-02-04T01:02:08.725Z,100790.53
2019-02-04T01:04:39.451Z,100798.20
2019-02-04T01:07:10.072Z,100796.17
2019-02-04T01:09:40.544Z,100807.33
2019-02-04T01:12:10.985Z,100803.94
2019-02-04T01:14:41.513Z,100804.59
2019-02-04T01:17:12.335Z,100804.86
2019-02-04T01:19:43.103Z,100811.98
2019-02-04T01:22:13.575Z,100810.45
2019-02-04T01:24:48.095Z,100818.08
2019-02-04T01:27:17.682Z,100823.55
2019-02-04T01:29:48.590Z,100826.84
2019-02-04T01:32:19.026Z,100831.28
2019-02-04T01:34:49.807Z,100836.03
2019-02-04T01:37:20.248Z,100834.17
2019-02-04T01:39:50.741Z,100825.92
2019-02-04T01:42:21.675Z,100833.91
2019-02-04T01:44:52.115Z,100842.41
2019-02-04T01:47:23.562Z,100844.30
2019-02-04T01:49:54.007Z,100845.73
2019-02-04T01:52:24.498Z,100841.27
2019-02-04T01:54:55.317Z,100844.87
2019-02-04T01:57:25.763Z,100845.19
2019-02-04T01:59:56.247Z,100852.73
2019-02-04T02:02:26.693Z,100853.47
2019-02-04T02:04:57.178Z,100850.05
2019-02-04T02:07:27.623Z,100855.86
2019-02-04T02:09:58.079Z,100860.47
2019-02-04T02:12:28.905Z,100856.12
2019-02-04T02:15:00.288Z,100860.06
2019-02-04T02:17:30.790Z,100867.41
2019-02-04T02:20:01.234Z,100865.16
2019-02-04T02:22:32.443Z,100867.72
2019-02-04T02:25:02.912Z,100865.44
2019-02-04T02:27:33.625Z,100873.59
2019-02-04T02:30:05.471Z,100871.63
2019-02-04T02:32:35.959Z,100871.06
2019-02-04T02:35:07.608Z,100883.86
2019-02-04T02:37:38.205Z,100885.95
2019-02-04T02:40:12.798Z,100890.53
2019-02-04T02:42:43.288Z,100898.55
2019-02-04T02:45:13.728Z,100899.45
2019-02-04T02:47:44.171Z,100898.72
2019-02-04T02:50:14.970Z,100896.22
2019-02-04T02:52:45.565Z,100896.77
2019-02-04T02:55:16.621Z,100904.23
2019-02-04T02:57:47.265Z,100905.55
2019-02-04T03:00:20.750Z,100895.69
2019-02-04T03:02:52.012Z,100901.00
2019-02-04T03:05:22.533Z,100902.17
2019-02-04T03:07:53.682Z,100909.84
2019-02-04T03:10:28.820Z,100916.41
2019-02-04T03:12:59.306Z,100917.05
2019-02-04T03:15:31.415Z,100923.42
2019-02-04T03:18:01.854Z,100923.42
2019-02-04T03:20:33.525Z,100925.02
2019-02-04T03:23:04.558Z,100930.52
2019-02-04T03:25:35.048Z,100926.23
2019-02-04T03:28:05.591Z,100932.30
2019-02-04T03:30:36.074Z,100930.58
2019-02-04T03:33:06.544Z,100931.55
2019-02-04T03:35:36.982Z,100933.53
2019-02-04T03:38:07.482Z,100927.97
2019-02-04T03:40:37.933Z,100924.11
2019-02-04T03:43:08.382Z,100922.80
2019-02-04T03:45:39.016Z,100920.77
2019-02-04T03:48:09.804Z,100922.92
2019-02-04T03:50:40.240Z,100930.80
2019-02-04T03:53:10.688Z,100923.83
2019-02-04T03:55:41.180Z,100931.91
2019-02-04T03:58:11.632Z,100935.13
2019-02-04T04:00:42.088Z,100927.77
2019-02-04T04:03:13.707Z,100925.67
2019-02-04T04:05:44.155Z,100922.74
2019-02-04T04:08:14.644Z,100926.80
2019-02-04T04:10:45.092Z,100929.55
2019-02-04T04:13:15.539Z,100931.54
2019-02-04T04:15:46.442Z,100933.98
2019-02-04T04:18:16.883Z,100941.29
2019-02-04T04:20:47.333Z,100944.69
2019-02-04T04:23:17.821Z,100934.45
2019-02-04T04:25:48.272Z,100930.92
2019-02-04T04:28:18.768Z,100937.48
2019-02-04T04:30:49.276Z,100936.03
2019-02-04T04:33:19.725Z,100933.74
2019-02-04T04:35:50.495Z,100945.96
2019-02-04T04:38:20.985Z,100943.06
2019-02-04T04:40:51.436Z,100941.44
2019-02-04T04:43:21.882Z,100941.97
2019-02-04T04:45:52.389Z,100946.23
2019-02-04T04:48:26.768Z,100944.41
2019-02-04T04:50:54.984Z,100941.62
2019-02-04T04:53:25.479Z,100940.81
2019-02-04T04:55:55.927Z,100944.74
2019-02-04T04:58:26.392Z,100935.63
2019-02-04T05:00:56.898Z,100933.91
2019-02-04T05:03:27.350Z,100936.19
2019-02-04T05:05:58.111Z,100939.13
2019-02-04T05:08:28.995Z,100933.52
2019-02-04T05:10:59.448Z,100937.16
2019-02-04T05:13:30.052Z,100934.53
2019-02-04T05:16:00.829Z,100943.36
2019-02-04T05:18:38.121Z,100935.84
2019-02-04T05:21:03.907Z,100941.84
2019-02-04T05:23:34.414Z,100942.64
2019-02-04T05:26:04.964Z,100949.02
2019-02-04T05:28:35.420Z,100946.72
2019-02-04T05:31:06.072Z,100952.64
2019-02-04T05:33:37.277Z,100950.66
2019-02-04T05:36:07.723Z,100956.52
2019-02-04T05:38:38.220Z,100951.36
2019-02-04T05:41:08.665Z,100947.42
2019-02-04T05:43:39.402Z,100952.78
2019-02-04T05:46:09.898Z,100948.19
2019-02-04T05:48:49.109Z,100942.91
2019-02-04T05:51:13.218Z,100941.51
2019-02-04T05:53:43.778Z,100946.83
2019-02-04T05:56:14.228Z,100948.50
2019-02-04T05:58:44.749Z,100955.70
2019-02-04T06:01:15.243Z,100955.52
2019-02-04T06:03:45.688Z,100950.84
2019-02-04T06:06:16.141Z,100954.19
2019-02-04T06:08:46.641Z,100955.05
2019-02-04T06:11:17.180Z,100944.54
2019-02-04T06:13:47.970Z,100942.77
2019-02-04T06:16:18.888Z,100953.27
2019-02-04T06:19:00.123Z,100953.30
2019-02-04T06:21:21.487Z,100954.31
2019-02-04T06:23:52.009Z,100951.39
2019-02-04T06:26:23.427Z,100949.02
2019-02-04T06:28:53.904Z,100953.61
2019-02-04T06:31:24.396Z,100961.39
2019-02-04T06:33:54.845Z,100958.69
2019-02-04T06:36:25.762Z,100968.73
2019-02-04T06:38:57.010Z,100970.44
2019-02-04T06:41:27.524Z,100971.50
2019-02-04T06:43:58.041Z,100966.51
2019-02-04T06:46:29.271Z,100977.17
2019-02-04T06:48:59.751Z,100974.72
2019-02-04T06:51:30.422Z,100979.80
2019-02-04T06:54:01.212Z,100981.77
2019-02-04T06:56:31.963Z,100985.17
2019-02-04T06:59:02.435Z,100998.79
2019-02-04T07:01:32.913Z,100989.66
2019-02-04T07:04:03.365Z,100999.30
2019-02-04T07:06:35.115Z,101000.03
2019-02-04T07:09:09.829Z,101007.92
2019-02-04T07:11:40.347Z,101007.78
2019-02-04T07:14:10.789Z,101003.33
2019-02-04T07:16:41.307Z,101008.72
2019-02-04T07:19:23.486Z,101006.61
2019-02-04T07:21:43.894Z,101007.84
2019-02-04T07:24:14.451Z,101014.23
2019-02-04T07:26:44.908Z,101013.31
2019-02-04T07:29:15.348Z,101016.59
2019-02-04T07:31:46.120Z,101011.13
2019-02-04T07:34:16.577Z,101005.43
2019-02-04T07:36:47.093Z,101006.41
2019-02-04T07:39:17.583Z,101005.94
2019-02-04T07:41:48.135Z,101004.64
2019-02-04T07:44:18.647Z,101006.15
2019-02-04T07:46:49.529Z,101000.17
2019-02-04T07:49:19.951Z,101007.22
2019-02-04T07:51:50.577Z,101006.49
2019-02-04T07:54:21.671Z,101004.13
2019-02-04T07:56:52.110Z,101002.99
2019-02-04T07:59:22.579Z,100999.05
2019-02-04T08:01:53.370Z,101000.62
2019-02-04T08:04:23.986Z,100994.92
2019-02-04T08:06:54.433Z,100991.95
2019-02-04T08:09:24.939Z,100993.13
2019-02-04T08:11:55.755Z,100996.27
2019-02-04T08:14:26.490Z,100994.19
2019-02-04T08:16:57.421Z,100991.02
2019-02-04T08:19:27.903Z,100992.61
2019-02-04T08:21:58.750Z,100983.98
2019-02-04T08:24:29.744Z,100990.81
2019-02-04T08:27:00.159Z,100984.59
2019-02-04T08:29:30.963Z,100980.23
2019-02-04T08:32:01.479Z,100985.16
2019-02-04T08:34:31.959Z,100989.86
2019-02-04T08:37:03.467Z,100972.41
2019-02-04T08:39:33.972Z,100977.41
2019-02-04T08:42:04.514Z,100974.92
2019-02-04T08:44:34.963Z,100978.97
2019-02-04T08:47:05.490Z,100976.66
2019-02-04T08:49:35.937Z,100976.63
2019-02-04T08:52:06.766Z,100973.56
2019-02-04T08:54:37.255Z,100971.12
2019-02-04T08:57:07.700Z,100969.33
2019-02-04T08:59:38.507Z,100972.02
2019-02-04T09:02:09.409Z,100965.75
2019-02-04T09:04:39.877Z,100968.38
2019-02-04T09:07:10.595Z,100964.99
2019-02-04T09:09:41.078Z,100958.92
2019-02-04T09:12:11.693Z,100963.34
2019-02-04T09:14:42.139Z,100966.40
2019-02-04T09:17:12.653Z,100966.03
2019-02-04T09:19:43.090Z,100974.48
2019-02-04T09:22:13.534Z,100964.09
2019-02-04T09:24:44.023Z,100961.62
2019-02-04T09:27:14.462Z,100955.72
2019-02-04T09:29:44.910Z,100957.05
2019-02-04T09:32:15.399Z,100948.72
2019-02-04T09:34:46.586Z,100949.03
2019-02-04T09:37:17.030Z,100943.58
2019-02-04T09:39:47.516Z,100946.52
2019-02-04T09:42:18.337Z,100940.14
2019-02-04T09:44:49.120Z,100937.80
2019-02-04T09:47:19.910Z,100930.24
2019-02-04T09:49:51.253Z,100939.85
2019-02-04T09:52:21.699Z,100940.08
2019-02-04T09:54:52.192Z,100932.26
2019-02-04T09:57:22.635Z,100936.94
2019-02-04T09:59:53.168Z,100931.03
2019-02-04T10:02:23.949Z,100931.26
2019-02-04T10:04:54.398Z,100933.45
2019-02-04T10:07:24.855Z,100936.09
2019-02-04T10:09:55.326Z,100933.48
2019-02-04T10:12:25.770Z,100926.45
2019-02-04T10:14:57.031Z,100924.23
2019-02-04T10:17:27.511Z,100928.52
2019-02-04T10:19:57.954Z,100930.24
2019-02-04T10:22:28.835Z,100933.26
2019-02-04T10:24:59.323Z,100930.72
2019-02-04T10:27:30.108Z,100920.64
2019-02-04T10:30:00.920Z,100926.45
2019-02-04T10:32:31.988Z,100933.84
2019-02-04T10:35:02.709Z,100939.53
2019-02-04T10:37:33.296Z,100935.59
2019-02-04T10:40:04.057Z,100934.61
2019-02-04T10:42:34.529Z,100934.57
2019-02-04T10:45:05.629Z,100930.22
2019-02-04T10:47:36.471Z,100927.70
2019-02-04T10:50:09.991Z,100921.00
2019-02-04T10:52:40.568Z,100918.45
2019-02-04T10:55:12.175Z,100909.00
2019-02-04T10:57:42.717Z,100910.55
2019-02-04T11:00:15.814Z,100911.61
2019-02-04T11:02:46.658Z,100907.44
2019-02-04T11:05:20.363Z,100898.19
2019-02-04T11:07:50.991Z,100904.84
2019-02-04T11:10:23.568Z,100900.86
2019-02-04T11:12:54.453Z,100898.55
2019-02-04T11:15:25.827Z,100896.59
2019-02-04T11:17:56.537Z,100897.94
2019-02-04T11:20:28.362Z,100892.55
2019-02-04T11:22:59.196Z,100886.03
2019-02-04T11:25:29.600Z,100896.58
2019-02-04T11:28:00.127Z,100893.39
2019-02-04T11:30:51.335Z,100903.88
2019-02-04T11:33:22.043Z,100895.08
2019-02-04T11:35:52.985Z,100885.19
2019-02-04T11:38:23.506Z,100890.43
2019-02-04T11:40:54.433Z,100881.81
2019-02-04T11:43:25.084Z,100876.83
2019-02-04T11:45:55.741Z,100880.49
2019-02-04T11:48:26.322Z,100863.27
2019-02-04T11:50:56.791Z,100866.53
2019-02-04T11:53:33.027Z,100859.04
2019-02-04T11:55:59.427Z,100869.62
2019-02-04T11:58:30.146Z,100867.92
2019-02-04T12:01:00.668Z,100868.94
2019-02-04T12:03:31.117Z,100868.50
2019-02-04T12:06:01.567Z,100862.58
2019-02-04T12:08:33.042Z,100856.81
2019-02-04T12:11:13.274Z,100857.44
2019-02-04T12:13:44.771Z,100852.29
2019-02-04T12:16:15.242Z,100850.48
2019-02-04T12:18:46.370Z,100843.44
2019-02-04T12:21:21.459Z,100841.63
2019-02-04T12:23:49.886Z,100845.09
2019-02-04T12:26:20.365Z,100835.60
2019-02-04T12:28:50.851Z,100844.77
2019-02-04T12:31:21.771Z,100839.63
2019-02-04T12:33:52.379Z,100848.14
2019-02-04T12:36:23.183Z,100842.02
2019-02-04T12:38:53.625Z,100849.67
2019-02-04T12:41:24.067Z,100848.43
2019-02-04T12:43:54.711Z,100844.28
2019-02-04T12:46:25.154Z,100840.50
2019-02-04T12:48:55.939Z,100834.92
2019-02-04T12:51:33.738Z,100834.63
2019-02-04T12:53:59.051Z,100830.13
2019-02-04T12:56:29.505Z,100834.39
2019-02-04T12:59:00.356Z,100837.80
2019-02-04T13:01:30.810Z,100824.94
2019-02-04T13:04:01.255Z,100827.78
2019-02-04T13:06:32.679Z,100830.23
2019-02-04T13:09:03.312Z,100823.66
2019-02-04T13:11:34.514Z,100820.52
2019-02-04T13:14:05.693Z,100826.59
2019-02-04T13:16:36.474Z,100826.23
2019-02-04T13:19:06.919Z,100826.65
2019-02-04T13:21:45.206Z,100827.42
2019-02-04T13:24:09.929Z,100819.30
2019-02-04T13:26:40.381Z,100825.17
2019-02-04T13:29:10.886Z,100818.84
2019-02-04T13:31:41.336Z,100817.07
2019-02-04T13:34:11.877Z,100810.06
2019-02-04T13:36:42.366Z,100815.94
2019-02-04T13:39:12.815Z,100810.37
2019-02-04T13:41:43.258Z,100812.71
2019-02-04T13:44:13.749Z,100814.59
2019-02-04T13:46:44.192Z,100810.91
2019-02-04T13:49:14.628Z,100817.07
2019-02-04T13:51:56.850Z,100809.42
2019-02-04T13:54:17.659Z,100811.13
2019-02-04T13:56:48.096Z,100805.84
2019-02-04T13:59:18.576Z,100797.60
2019-02-04T14:01:49.385Z,100797.80
2019-02-04T14:04:19.829Z,100789.67
2019-02-04T14:06:50.622Z,100792.03
2019-02-04T14:09:21.450Z,100793.94
2019-02-04T14:11:51.899Z,100787.22
2019-02-04T14:14:22.363Z,100788.47
2019-02-04T14:16:53.040Z,100787.02
2019-02-04T14:19:23.527Z,100787.98
2019-02-04T14:21:53.964Z,100787.70
2019-02-04T14:24:24.403Z,100784.78
2019-02-04T14:26:55.171Z,100785.63
2019-02-04T14:29:26.004Z,100779.95
2019-02-04T14:31:56.867Z,100779.84
2019-02-04T14:34:27.301Z,100775.42
2019-02-04T14:36:57.746Z,100776.36
2019-02-04T14:39:29.213Z,100776.84
2019-02-04T14:42:00.716Z,100775.98
2019-02-04T14:44:42.755Z,100783.44
2019-02-04T14:47:36.837Z,100785.14
2019-02-04T14:50:27.455Z,100786.05
2019-02-04T14:53:50.821Z,100782.86
2019-02-04T14:56:58.002Z,100784.47
2019-02-04T14:59:49.952Z,100786.92
2019-02-04T15:02:50.478Z,100780.19
2019-02-04T15:06:06.602Z,100785.31
2019-02-04T15:09:27.274Z,100774.71
2019-02-04T15:12:39.965Z,100780.19
2019-02-04T15:15:25.031Z,100773.97
2019-02-04T15:18:16.079Z,100773.55
2019-02-04T15:21:39.120Z,100769.04
2019-02-04T15:24:17.255Z,100765.63
2019-02-04T15:27:13.474Z,100765.81
2019-02-04T15:30:14.353Z,100756.69
2019-02-04T15:33:22.852Z,100758.11
2019-02-04T15:36:17.823Z,100753.53
2019-02-04T15:39:19.173Z,100746.28
2019-02-04T15:42:32.286Z,100732.75
2019-02-04T15:45:29.625Z,100729.72
2019-02-04T15:48:20.160Z,100730.33
2019-02-04T15:51:08.676Z,100722.86
2019-02-04T15:53:39.119Z,100722.86
2019-02-04T15:56:10.227Z,100727.75
2019-02-04T15:58:40.684Z,100731.78
2019-02-04T16:01:11.123Z,100726.30
2019-02-04T16:03:41.606Z,100721.85
2019-02-04T16:06:12.063Z,100724.14
2019-02-04T16:08:42.590Z,100727.42
2019-02-04T16:11:13.438Z,100725.62
2019-02-04T16:13:43.998Z,100727.27
2019-02-04T16:16:14.434Z,100724.34
2019-02-04T16:18:44.895Z,100725.85
2019-02-04T16:21:15.329Z,100720.08
2019-02-04T16:23:46.085Z,100717.05
2019-02-04T16:26:16.521Z,100718.70
2019-02-04T16:28:46.992Z,100719.89
2019-02-04T16:31:17.452Z,100717.44
2019-02-04T16:33:47.909Z,100724.24
2019-02-04T16:36:18.346Z,100727.46
2019-02-04T16:38:49.104Z,100721.21
2019-02-04T16:41:20.272Z,100724.63
2019-02-04T16:43:50.722Z,100732.71
2019-02-04T16:46:21.530Z,100732.91
2019-02-04T16:48:51.991Z,100738.48
2019-02-04T16:51:22.613Z,100742.15
2019-02-04T16:53:53.109Z,100739.90
2019-02-04T16:56:23.546Z,100744.44
2019-02-04T16:58:53.997Z,100740.93
2019-02-04T17:01:24.834Z,100743.38
2019-02-04T17:03:55.979Z,100747.08
2019-02-04T17:06:26.432Z,100737.64
2019-02-04T17:08:56.929Z,100740.38
2019-02-04T17:11:28.562Z,100743.95
2019-02-04T17:13:58.989Z,100743.28
2019-02-04T17:16:29.866Z,100729.14
2019-02-04T17:19:00.345Z,100737.31
2019-02-04T17:21:30.873Z,100729.88
2019-02-04T17:24:01.664Z,100726.40
2019-02-04T17:26:32.096Z,100733.94
2019-02-04T17:29:03.532Z,100725.36
2019-02-04T17:31:35.499Z,100723.47
2019-02-04T17:34:06.113Z,100727.27
2019-02-04T17:36:37.335Z,100726.69
2019-02-04T17:39:09.353Z,100725.72
2019-02-04T17:41:39.901Z,100720.66
2019-02-04T17:44:10.547Z,100721.02
2019-02-04T17:46:41.782Z,100711.83
2019-02-04T17:49:12.217Z,100718.27
2019-02-04T17:51:43.048Z,100718.34
2019-02-04T17:54:13.531Z,100712.86
2019-02-04T17:56:44.361Z,100723.46
2019-02-04T17:59:14.838Z,100714.56
2019-02-04T18:01:45.611Z,100712.08
2019-02-04T18:04:16.375Z,100716.08
2019-02-04T18:06:46.814Z,100715.59
2019-02-04T18:09:17.301Z,100713.79
2019-02-04T18:11:47.812Z,100715.10
2019-02-04T18:14:18.270Z,100709.63
2019-02-04T18:16:48.765Z,100723.22
2019-02-04T18:19:19.214Z,100717.11
2019-02-04T18:21:49.641Z,100715.11
2019-02-04T18:24:20.706Z,100716.23
2019-02-04T18:26:51.262Z,100717.75
2019-02-04T18:29:21.692Z,100710.20
2019-02-04T18:31:52.475Z,100712.12
2019-02-04T18:34:22.907Z,100707.58
2019-02-04T18:36:53.749Z,100703.91
2019-02-04T18:39:24.233Z,100701.75
2019-02-04T18:41:55.675Z,100695.98
2019-02-04T18:44:26.204Z,100684.55
2019-02-04T18:46:56.990Z,100685.80
2019-02-04T18:49:27.439Z,100675.10
2019-02-04T18:51:57.891Z,100676.46
2019-02-04T18:54:28.681Z,100667.02
2019-02-04T18:56:59.140Z,100661.19
2019-02-04T18:59:29.572Z,100652.44
2019-02-04T19:02:00.324Z,100646.28
2019-02-04T19:04:32.784Z,100637.97
2019-02-04T19:07:03.396Z,100640.13
2019-02-04T19:09:34.846Z,100635.62
2019-02-04T19:12:05.425Z,100647.41
2019-02-04T19:14:37.418Z,100641.73
2019-02-04T19:17:07.905Z,100640.91
2019-02-04T19:19:39.037Z,100636.36
2019-02-04T19:22:10.718Z,100643.55
2019-02-04T19:24:42.184Z,100646.25
2019-02-04T19:27:14.238Z,100640.23
2019-02-04T19:29:45.047Z,100639.30
2019-02-04T19:32:16.550Z,100631.66
2019-02-04T19:34:46.994Z,100636.07
2019-02-04T19:37:19.257Z,100638.91
2019-02-04T19:39:49.926Z,100639.45
2019-02-04T19:42:20.901Z,100641.90
2019-02-04T19:44:54.177Z,100642.19
2019-02-04T19:47:24.983Z,100643.90
2019-02-04T19:49:55.793Z,100641.42
2019-02-04T19:52:26.891Z,100640.19
2019-02-04T19:54:57.326Z,100641.80
2019-02-04T19:57:28.033Z,100646.73
2019-02-04T19:59:58.542Z,100647.37
2019-02-04T20:02:29.343Z,100642.77
2019-02-04T20:05:00.374Z,100646.25
2019-02-04T20:07:32.657Z,100645.12
2019-02-04T20:10:06.415Z,100633.91
2019-02-04T20:12:37.198Z,100642.03
2019-02-04T20:15:10.539Z,100648.54
2019-02-04T20:17:41.307Z,100646.83
2019-02-04T20:20:11.972Z,100643.25
2019-02-04T20:22:44.139Z,100646.83
2019-02-04T20:25:17.391Z,100635.91
2019-02-04T20:27:47.859Z,100635.88
2019-02-04T20:30:21.366Z,100635.04
2019-02-04T20:32:51.899Z,100635.98
2019-02-04T20:35:22.326Z,100628.53
2019-02-04T20:37:53.165Z,100623.73
2019-02-04T20:40:23.655Z,100622.58
2019-02-04T20:42:54.090Z,100621.35
2019-02-04T20:45:25.345Z,100612.02
2019-02-04T20:47:55.829Z,100604.77
2019-02-04T20:50:28.790Z,100597.95
2019-02-04T20:52:59.454Z,100588.89
2019-02-04T20:55:30.200Z,100578.05
2019-02-04T20:58:01.302Z,100581.17
2019-02-04T21:00:31.886Z,100584.45
2019-02-04T21:03:02.469Z,100587.41
2019-02-04T21:05:32.968Z,100585.71
2019-02-04T21:08:03.446Z,100594.56
2019-02-04T21:10:33.911Z,100601.55
2019-02-04T21:13:04.810Z,100606.28
2019-02-04T21:15:35.580Z,100617.59
2019-02-04T21:18:06.898Z,100614.59
2019-02-04T21:20:37.444Z,100617.78
2019-02-04T21:23:07.891Z,100622.12
2019-02-04T21:25:38.546Z,100633.17
2019-02-04T21:28:09.044Z,100628.18
2019-02-04T21:30:41.804Z,100632.20
2019-02-04T21:33:12.274Z,100642.70
2019-02-04T21:35:43.525Z,100632.20
2019-02-04T21:38:14.422Z,100640.97
2019-02-04T21:40:44.933Z,100640.61
2019-02-04T21:43:15.527Z,100649.95
2019-02-04T21:45:45.951Z,100641.19
2019-02-04T21:48:16.890Z,100641.77
2019-02-04T21:50:47.779Z,100641.95
2019-02-04T21:53:19.413Z,100656.39
2019-02-04T21:55:51.063Z,100655.84
2019-02-04T21:58:21.851Z,100655.65
2019-02-04T22:00:52.320Z,100662.90
2019-02-04T22:03:23.126Z,100664.60
2019-02-04T22:05:53.608Z,100662.70
2019-02-04T22:08:24.046Z,100656.88
2019-02-04T22:10:54.874Z,100656.19
2019-02-04T22:13:25.332Z,100657.80
2019-02-04T22:15:55.836Z,100651.58
2019-02-04T22:18:26.627Z,100647.72
2019-02-04T22:20:57.315Z,100651.87
2019-02-04T22:23:27.751Z,100656.29
2019-02-04T22:25:58.938Z,100652.23
2019-02-04T22:28:29.378Z,100659.61
2019-02-04T22:31:00.241Z,100652.33
2019-02-04T22:33:31.367Z,100661.87
2019-02-04T22:36:01.807Z,100660.44
2019-02-04T22:38:32.261Z,100649.69
2019-02-04T22:41:03.594Z,100662.34
2019-02-04T22:43:34.072Z,100661.14
2019-02-04T22:46:05.084Z,100658.77
2019-02-04T22:48:35.786Z,100657.44
2019-02-04T22:51:06.346Z,100663.50
2019-02-04T22:53:36.779Z,100661.98
2019-02-04T22:56:07.276Z,100667.06
2019-02-04T22:58:38.104Z,100670.77
2019-02-04T23:01:22.361Z,100672.35
2019-02-04T23:03:53.184Z,100664.34
2019-02-04T23:06:23.711Z,100668.30
2019-02-04T23:08:54.664Z,100669.71
2019-02-04T23:11:25.092Z,100663.32
2019-02-04T23:13:55.573Z,100670.86
2019-02-04T23:16:26.014Z,100674.73
2019-02-04T23:18:56.475Z,100675.55
2019-02-04T23:21:26.937Z,100680.67
2019-02-04T23:23:57.656Z,100680.64
2019-02-04T23:26:28.153Z,100678.65
2019-02-04T23:29:00.284Z,100667.63
2019-02-04T23:31:30.713Z,100664.07
2019-02-04T23:34:01.174Z,100661.20
2019-02-04T23:36:31.981Z,100656.31
2019-02-04T23:39:03.708Z,100656.31
2019-02-04T23:41:34.141Z,100648.22
2019-02-04T23:44:05.121Z,100649.12
2019-02-04T23:46:35.576Z,100648.20
2019-02-04T23:49:06.421Z,100639.41
2019-02-04T23:51:37.312Z,100636.66
2019-02-04T23:54:08.204Z,100632.63
2019-02-04T23:56:38.634Z,100629.78
2019-02-04T23:59:09.092Z,100624.59
